sensor_id;sensor_type;location;lat;lon;timestamp;pressure;altitude;pressure_sealevel;temperature;humidity
36964;BME280;22878;48.616;35.326;2023-02-17T00:04:35;101726.70;;;-0.79;100.00
36964;BME280;22878;48.616;35.326;2023-02-17T00:07:00;101725.73;;;-0.79;100.00
36964;BME280;22878;48.616;35.326;2023-02-17T00:09:26;101722.39;;;-0.80;100.00
36964;BME280;22878;48.616;35.326;2023-02-17T00:11:51;101716.13;;;-0.80;100.00
36964;BME280;22878;48.616;35.326;2023-02-17T00:14:17;101715.48;;;-0.81;100.00
36964;BME280;22878;48.616;35.326;2023-02-17T00:16:43;101714.02;;;-0.80;100.00
36964;BME280;22878;48.616;35.326;2023-02-17T00:19:10;101716.71;;;-0.83;100.00
36964;BME280;22878;48.616;35.326;2023-02-17T00:24:14;101709.61;;;-0.87;100.00
36964;BME280;22878;48.616;35.326;2023-02-17T00:26:40;101708.02;;;-0.87;100.00
36964;BME280;22878;48.616;35.326;2023-02-17T00:29:05;101697.27;;;-0.87;100.00
36964;BME280;22878;48.616;35.326;2023-02-17T00:31:31;101701.98;;;-0.87;100.00
36964;BME280;22878;48.616;35.326;2023-02-17T00:33:56;101698.55;;;-0.88;100.00
36964;BME280;22878;48.616;35.326;2023-02-17T00:36:23;101695.67;;;-0.91;100.00
36964;BME280;22878;48.616;35.326;2023-02-17T00:38:49;101696.56;;;-0.97;100.00
36964;BME280;22878;48.616;35.326;2023-02-17T00:41:18;101688.05;;;-0.99;100.00
36964;BME280;22878;48.616;35.326;2023-02-17T00:43:44;101685.65;;;-1.02;100.00
36964;BME280;22878;48.616;35.326;2023-02-17T00:46:10;101686.73;;;-1.05;100.00
36964;BME280;22878;48.616;35.326;2023-02-17T00:48:35;101688.34;;;-1.07;100.00
36964;BME280;22878;48.616;35.326;2023-02-17T00:51:02;101682.20;;;-1.09;100.00
36964;BME280;22878;48.616;35.326;2023-02-17T00:53:27;101678.79;;;-1.10;100.00
36964;BME280;22878;48.616;35.326;2023-02-17T00:55:53;101677.80;;;-1.11;100.00
36964;BME280;22878;48.616;35.326;2023-02-17T00:58:19;101670.20;;;-1.11;100.00
36964;BME280;22878;48.616;35.326;2023-02-17T01:00:44;101668.01;;;-1.12;100.00
36964;BME280;22878;48.616;35.326;2023-02-17T01:03:10;101665.66;;;-1.13;100.00
36964;BME280;22878;48.616;35.326;2023-02-17T01:05:42;101664.13;;;-1.14;100.00
36964;BME280;22878;48.616;35.326;2023-02-17T01:08:08;101657.77;;;-1.17;100.00
36964;BME280;22878;48.616;35.326;2023-02-17T01:10:40;101656.91;;;-1.16;100.00
36964;BME280;22878;48.616;35.326;2023-02-17T01:13:06;101654.95;;;-1.17;100.00
36964;BME280;22878;48.616;35.326;2023-02-17T01:15:58;101648.98;;;-1.17;100.00
36964;BME280;22878;48.616;35.326;2023-02-17T01:18:23;101638.42;;;-1.16;100.00
36964;BME280;22878;48.616;35.326;2023-02-17T01:20:50;101635.05;;;-1.16;100.00
36964;BME280;22878;48.616;35.326;2023-02-17T01:23:15;101635.37;;;-1.20;100.00
36964;BME280;22878;48.616;35.326;2023-02-17T01:25:43;101635.53;;;-1.20;100.00
36964;BME280;22878;48.616;35.326;2023-02-17T01:28:14;101633.41;;;-1.20;100.00
36964;BME280;22878;48.616;35.326;2023-02-17T01:30:39;101628.94;;;-1.19;100.00
36964;BME280;22878;48.616;35.326;2023-02-17T01:33:05;101624.34;;;-1.18;100.00
36964;BME280;22878;48.616;35.326;2023-02-17T01:35:32;101619.61;;;-1.18;100.00
36964;BME280;22878;48.616;35.326;2023-02-17T01:37:58;101611.24;;;-1.19;100.00
36964;BME280;22878;48.616;35.326;2023-02-17T01:40:24;101609.60;;;-1.23;100.00
36964;BME280;22878;48.616;35.326;2023-02-17T01:42:50;101607.20;;;-1.22;100.00
36964;BME280;22878;48.616;35.326;2023-02-17T01:47:53;101604.34;;;-1.29;100.00
36964;BME280;22878;48.616;35.326;2023-02-17T01:50:24;101603.20;;;-1.31;100.00
36964;BME280;22878;48.616;35.326;2023-02-17T01:52:53;101595.17;;;-1.34;100.00
36964;BME280;22878;48.616;35.326;2023-02-17T01:55:20;101595.45;;;-1.35;100.00
36964;BME280;22878;48.616;35.326;2023-02-17T01:57:48;101593.82;;;-1.37;100.00
36964;BME280;22878;48.616;35.326;2023-02-17T02:00:18;101589.18;;;-1.38;100.00
36964;BME280;22878;48.616;35.326;2023-02-17T02:02:46;101587.52;;;-1.37;100.00
36964;BME280;22878;48.616;35.326;2023-02-17T02:05:13;101586.96;;;-1.34;100.00
36964;BME280;22878;48.616;35.326;2023-02-17T02:07:41;101586.56;;;-1.34;100.00
36964;BME280;22878;48.616;35.326;2023-02-17T02:10:10;101589.24;;;-1.33;100.00
36964;BME280;22878;48.616;35.326;2023-02-17T02:12:40;101585.15;;;-1.34;100.00
36964;BME280;22878;48.616;35.326;2023-02-17T02:29:50;101564.92;;;-1.63;100.00
36964;BME280;22878;48.616;35.326;2023-02-17T02:32:38;101568.41;;;-1.60;100.00
36964;BME280;22878;48.616;35.326;2023-02-17T02:35:14;101564.41;;;-1.61;100.00
36964;BME280;22878;48.616;35.326;2023-02-17T02:37:47;101562.70;;;-1.60;100.00
36964;BME280;22878;48.616;35.326;2023-02-17T02:40:16;101566.88;;;-1.55;100.00
36964;BME280;22878;48.616;35.326;2023-02-17T02:42:44;101561.97;;;-1.54;100.00
36964;BME280;22878;48.616;35.326;2023-02-17T02:45:10;101556.63;;;-1.52;100.00
36964;BME280;22878;48.616;35.326;2023-02-17T02:50:10;101556.92;;;-1.49;100.00
36964;BME280;22878;48.616;35.326;2023-02-17T02:55:42;101554.68;;;-1.46;100.00
36964;BME280;22878;48.616;35.326;2023-02-17T02:58:21;101551.94;;;-1.47;100.00
36964;BME280;22878;48.616;35.326;2023-02-17T03:01:08;101553.54;;;-1.49;100.00
36964;BME280;22878;48.616;35.326;2023-02-17T03:06:18;101544.41;;;-1.51;100.00
36964;BME280;22878;48.616;35.326;2023-02-17T03:08:50;101539.83;;;-1.51;100.00
36964;BME280;22878;48.616;35.326;2023-02-17T03:11:22;101543.30;;;-1.51;100.00
36964;BME280;22878;48.616;35.326;2023-02-17T03:14:05;101538.63;;;-1.53;100.00
36964;BME280;22878;48.616;35.326;2023-02-17T03:16:32;101533.65;;;-1.56;100.00
36964;BME280;22878;48.616;35.326;2023-02-17T03:18:58;101530.63;;;-1.59;100.00
36964;BME280;22878;48.616;35.326;2023-02-17T03:21:30;101526.52;;;-1.62;100.00
36964;BME280;22878;48.616;35.326;2023-02-17T03:24:00;101527.85;;;-1.65;100.00
36964;BME280;22878;48.616;35.326;2023-02-17T03:26:26;101516.52;;;-1.68;100.00
36964;BME280;22878;48.616;35.326;2023-02-17T03:28:51;101515.34;;;-1.68;100.00
36964;BME280;22878;48.616;35.326;2023-02-17T03:31:17;101509.87;;;-1.73;100.00
36964;BME280;22878;48.616;35.326;2023-02-17T03:33:42;101509.08;;;-1.73;100.00
36964;BME280;22878;48.616;35.326;2023-02-17T03:36:08;101506.37;;;-1.75;100.00
36964;BME280;22878;48.616;35.326;2023-02-17T03:38:33;101507.84;;;-1.76;100.00
36964;BME280;22878;48.616;35.326;2023-02-17T03:40:59;101506.13;;;-1.75;100.00
36964;BME280;22878;48.616;35.326;2023-02-17T03:43:24;101504.23;;;-1.75;100.00
36964;BME280;22878;48.616;35.326;2023-02-17T03:45:50;101503.23;;;-1.77;100.00
36964;BME280;22878;48.616;35.326;2023-02-17T03:48:15;101497.58;;;-1.79;100.00
36964;BME280;22878;48.616;35.326;2023-02-17T03:50:41;101494.08;;;-1.81;100.00
36964;BME280;22878;48.616;35.326;2023-02-17T03:53:06;101486.92;;;-1.84;100.00
36964;BME280;22878;48.616;35.326;2023-02-17T03:55:32;101487.61;;;-1.85;100.00
36964;BME280;22878;48.616;35.326;2023-02-17T03:57:57;101487.14;;;-1.87;100.00
36964;BME280;22878;48.616;35.326;2023-02-17T04:00:22;101484.34;;;-1.88;100.00
36964;BME280;22878;48.616;35.326;2023-02-17T04:02:48;101480.49;;;-1.86;100.00
36964;BME280;22878;48.616;35.326;2023-02-17T04:05:14;101482.48;;;-1.87;100.00
36964;BME280;22878;48.616;35.326;2023-02-17T04:11:02;101483.20;;;-1.89;100.00
36964;BME280;22878;48.616;35.326;2023-02-17T04:13:28;101477.12;;;-1.89;100.00
36964;BME280;22878;48.616;35.326;2023-02-17T04:15:53;101476.42;;;-1.90;100.00
36964;BME280;22878;48.616;35.326;2023-02-17T04:18:19;101473.88;;;-1.89;100.00
36964;BME280;22878;48.616;35.326;2023-02-17T04:20:47;101470.61;;;-1.90;100.00
36964;BME280;22878;48.616;35.326;2023-02-17T04:23:13;101465.54;;;-1.90;100.00
36964;BME280;22878;48.616;35.326;2023-02-17T04:25:39;101465.87;;;-1.89;100.00
36964;BME280;22878;48.616;35.326;2023-02-17T04:28:06;101459.48;;;-1.91;100.00
36964;BME280;22878;48.616;35.326;2023-02-17T04:30:32;101456.16;;;-1.89;100.00
36964;BME280;22878;48.616;35.326;2023-02-17T04:32:58;101451.49;;;-1.90;100.00
36964;BME280;22878;48.616;35.326;2023-02-17T04:35:24;101450.17;;;-1.89;100.00
36964;BME280;22878;48.616;35.326;2023-02-17T04:37:50;101451.46;;;-1.90;100.00
36964;BME280;22878;48.616;35.326;2023-02-17T04:40:16;101449.08;;;-1.91;100.00
36964;BME280;22878;48.616;35.326;2023-02-17T04:42:41;101452.47;;;-1.91;100.00
36964;BME280;22878;48.616;35.326;2023-02-17T04:45:08;101448.23;;;-1.89;100.00
36964;BME280;22878;48.616;35.326;2023-02-17T04:47:34;101447.06;;;-1.92;100.00
36964;BME280;22878;48.616;35.326;2023-02-17T04:49:59;101445.33;;;-1.90;100.00
36964;BME280;22878;48.616;35.326;2023-02-17T04:52:25;101445.32;;;-1.90;100.00
36964;BME280;22878;48.616;35.326;2023-02-17T04:54:50;101444.42;;;-1.86;100.00
36964;BME280;22878;48.616;35.326;2023-02-17T04:57:16;101442.71;;;-1.83;100.00
36964;BME280;22878;48.616;35.326;2023-02-17T04:59:42;101444.56;;;-1.83;100.00
36964;BME280;22878;48.616;35.326;2023-02-17T05:02:07;101440.87;;;-1.77;100.00
36964;BME280;22878;48.616;35.326;2023-02-17T05:04:33;101440.59;;;-1.78;100.00
36964;BME280;22878;48.616;35.326;2023-02-17T05:06:59;101442.04;;;-1.78;100.00
36964;BME280;22878;48.616;35.326;2023-02-17T05:09:24;101442.54;;;-1.80;100.00
36964;BME280;22878;48.616;35.326;2023-02-17T05:11:50;101446.88;;;-1.81;100.00
36964;BME280;22878;48.616;35.326;2023-02-17T05:14:15;101446.44;;;-1.78;100.00
36964;BME280;22878;48.616;35.326;2023-02-17T05:16:41;101448.24;;;-1.79;100.00
36964;BME280;22878;48.616;35.326;2023-02-17T05:19:06;101450.77;;;-1.78;100.00
36964;BME280;22878;48.616;35.326;2023-02-17T05:21:32;101445.70;;;-1.80;100.00
36964;BME280;22878;48.616;35.326;2023-02-17T05:23:57;101447.95;;;-1.78;100.00
36964;BME280;22878;48.616;35.326;2023-02-17T05:26:23;101447.09;;;-1.74;100.00
36964;BME280;22878;48.616;35.326;2023-02-17T05:28:49;101444.09;;;-1.73;100.00
36964;BME280;22878;48.616;35.326;2023-02-17T05:31:15;101445.81;;;-1.71;100.00
36964;BME280;22878;48.616;35.326;2023-02-17T05:33:40;101444.34;;;-1.67;100.00
36964;BME280;22878;48.616;35.326;2023-02-17T05:39:28;101434.10;;;-1.63;100.00
36964;BME280;22878;48.616;35.326;2023-02-17T05:41:53;101434.70;;;-1.60;100.00
36964;BME280;22878;48.616;35.326;2023-02-17T05:44:19;101433.19;;;-1.56;100.00
36964;BME280;22878;48.616;35.326;2023-02-17T05:46:44;101431.05;;;-1.54;100.00
36964;BME280;22878;48.616;35.326;2023-02-17T05:49:10;101433.43;;;-1.45;100.00
36964;BME280;22878;48.616;35.326;2023-02-17T05:51:36;101427.66;;;-1.42;100.00
36964;BME280;22878;48.616;35.326;2023-02-17T05:54:02;101428.36;;;-1.40;100.00
36964;BME280;22878;48.616;35.326;2023-02-17T05:56:28;101427.72;;;-1.32;100.00
36964;BME280;22878;48.616;35.326;2023-02-17T05:58:53;101433.73;;;-1.22;100.00
36964;BME280;22878;48.616;35.326;2023-02-17T06:01:19;101426.85;;;-1.22;100.00
36964;BME280;22878;48.616;35.326;2023-02-17T06:03:44;101428.70;;;-1.23;100.00
36964;BME280;22878;48.616;35.326;2023-02-17T06:06:10;101429.75;;;-1.23;100.00
36964;BME280;22878;48.616;35.326;2023-02-17T06:08:35;101426.06;;;-1.18;100.00
36964;BME280;22878;48.616;35.326;2023-02-17T06:11:01;101423.69;;;-1.19;100.00
36964;BME280;22878;48.616;35.326;2023-02-17T06:13:27;101424.83;;;-1.13;100.00
36964;BME280;22878;48.616;35.326;2023-02-17T06:15:52;101420.92;;;-1.13;100.00
36964;BME280;22878;48.616;35.326;2023-02-17T06:18:18;101419.77;;;-1.04;100.00
36964;BME280;22878;48.616;35.326;2023-02-17T06:20:43;101421.16;;;-0.97;100.00
36964;BME280;22878;48.616;35.326;2023-02-17T06:23:09;101421.28;;;-0.89;100.00
36964;BME280;22878;48.616;35.326;2023-02-17T06:25:35;101423.70;;;-0.84;100.00
36964;BME280;22878;48.616;35.326;2023-02-17T06:28:01;101424.49;;;-0.85;100.00
36964;BME280;22878;48.616;35.326;2023-02-17T06:30:27;101426.11;;;-0.85;100.00
36964;BME280;22878;48.616;35.326;2023-02-17T06:32:52;101426.75;;;-0.82;100.00
36964;BME280;22878;48.616;35.326;2023-02-17T06:35:18;101424.73;;;-0.77;100.00
36964;BME280;22878;48.616;35.326;2023-02-17T06:37:43;101420.42;;;-0.79;100.00
36964;BME280;22878;48.616;35.326;2023-02-17T06:40:10;101422.15;;;-0.72;100.00
36964;BME280;22878;48.616;35.326;2023-02-17T06:42:35;101418.12;;;-0.68;100.00
36964;BME280;22878;48.616;35.326;2023-02-17T06:45:01;101417.17;;;-0.66;100.00
36964;BME280;22878;48.616;35.326;2023-02-17T06:47:30;101412.43;;;-0.66;100.00
36964;BME280;22878;48.616;35.326;2023-02-17T06:53:17;101411.61;;;-0.63;100.00
36964;BME280;22878;48.616;35.326;2023-02-17T06:55:43;101406.01;;;-0.64;100.00
36964;BME280;22878;48.616;35.326;2023-02-17T06:58:09;101405.38;;;-0.59;100.00
36964;BME280;22878;48.616;35.326;2023-02-17T13:24:14;101257.22;;;-0.10;100.00
36964;BME280;22878;48.616;35.326;2023-02-17T13:32:46;101257.67;;;-0.08;100.00
36964;BME280;22878;48.616;35.326;2023-02-17T13:37:44;101255.66;;;-0.01;100.00
36964;BME280;22878;48.616;35.326;2023-02-17T13:43:15;101256.94;;;0.07;100.00
36964;BME280;22878;48.616;35.326;2023-02-17T13:45:48;101250.27;;;0.01;100.00
36964;BME280;22878;48.616;35.326;2023-02-17T13:57:33;101257.02;;;-0.08;100.00
36964;BME280;22878;48.616;35.326;2023-02-17T14:00:21;101251.14;;;-0.11;100.00
36964;BME280;22878;48.616;35.326;2023-02-17T14:09:32;101263.96;;;-0.21;100.00
36964;BME280;22878;48.616;35.326;2023-02-17T14:15:22;101261.13;;;-0.23;100.00
36964;BME280;22878;48.616;35.326;2023-02-17T14:17:49;101259.59;;;-0.28;100.00
36964;BME280;22878;48.616;35.326;2023-02-17T14:20:24;101258.43;;;-0.27;100.00
36964;BME280;22878;48.616;35.326;2023-02-17T14:22:59;101261.79;;;-0.29;100.00
36964;BME280;22878;48.616;35.326;2023-02-17T14:25:28;101262.97;;;-0.28;100.00
36964;BME280;22878;48.616;35.326;2023-02-17T14:27:54;101263.02;;;-0.30;100.00
36964;BME280;22878;48.616;35.326;2023-02-17T14:35:53;101258.84;;;-0.31;100.00
36964;BME280;22878;48.616;35.326;2023-02-17T14:45:02;101264.14;;;-0.38;100.00
36964;BME280;22878;48.616;35.326;2023-02-17T14:47:27;101266.79;;;-0.38;100.00
36964;BME280;22878;48.616;35.326;2023-02-17T14:49:53;101269.84;;;-0.40;100.00
36964;BME280;22878;48.616;35.326;2023-02-17T14:52:20;101270.92;;;-0.39;100.00
36964;BME280;22878;48.616;35.326;2023-02-17T14:54:47;101272.59;;;-0.43;100.00
36964;BME280;22878;48.616;35.326;2023-02-17T14:57:13;101270.02;;;-0.45;100.00
36964;BME280;22878;48.616;35.326;2023-02-17T14:59:42;101271.98;;;-0.46;100.00
36964;BME280;22878;48.616;35.326;2023-02-17T15:02:18;101270.55;;;-0.47;100.00
36964;BME280;22878;48.616;35.326;2023-02-17T15:08:09;101276.84;;;-0.47;100.00
36964;BME280;22878;48.616;35.326;2023-02-17T15:10:36;101275.89;;;-0.48;100.00
36964;BME280;22878;48.616;35.326;2023-02-17T15:13:04;101275.73;;;-0.50;100.00
36964;BME280;22878;48.616;35.326;2023-02-17T15:15:30;101280.67;;;-0.48;100.00
36964;BME280;22878;48.616;35.326;2023-02-17T15:17:55;101285.33;;;-0.40;100.00
36964;BME280;22878;48.616;35.326;2023-02-17T15:20:21;101283.81;;;-0.46;100.00
36964;BME280;22878;48.616;35.326;2023-02-17T15:22:46;101280.14;;;-0.46;100.00
36964;BME280;22878;48.616;35.326;2023-02-17T15:25:18;101284.61;;;-0.45;100.00
36964;BME280;22878;48.616;35.326;2023-02-17T15:27:47;101285.89;;;-0.44;100.00
36964;BME280;22878;48.616;35.326;2023-02-17T15:30:17;101285.86;;;-0.43;100.00
36964;BME280;22878;48.616;35.326;2023-02-17T15:32:43;101282.62;;;-0.45;100.00
36964;BME280;22878;48.616;35.326;2023-02-17T15:35:18;101286.75;;;-0.43;100.00
36964;BME280;22878;48.616;35.326;2023-02-17T15:37:44;101295.95;;;-0.42;100.00
36964;BME280;22878;48.616;35.326;2023-02-17T15:40:21;101296.39;;;-0.43;100.00
36964;BME280;22878;48.616;35.326;2023-02-17T15:46:11;101300.35;;;-0.42;100.00
36964;BME280;22878;48.616;35.326;2023-02-17T15:48:40;101299.40;;;-0.43;100.00
36964;BME280;22878;48.616;35.326;2023-02-17T15:54:27;101307.61;;;-0.44;100.00
36964;BME280;22878;48.616;35.326;2023-02-17T15:56:59;101307.67;;;-0.43;100.00
36964;BME280;22878;48.616;35.326;2023-02-17T15:59:32;101310.09;;;-0.46;100.00
36964;BME280;22878;48.616;35.326;2023-02-17T16:01:59;101318.66;;;-0.47;100.00
36964;BME280;22878;48.616;35.326;2023-02-17T16:04:27;101322.62;;;-0.44;100.00
36964;BME280;22878;48.616;35.326;2023-02-17T16:10:17;101320.20;;;-0.53;100.00
36964;BME280;22878;48.616;35.326;2023-02-17T16:12:43;101320.33;;;-0.52;100.00
36964;BME280;22878;48.616;35.326;2023-02-17T16:18:31;101322.82;;;-0.55;100.00
36964;BME280;22878;48.616;35.326;2023-02-17T16:20:57;101322.86;;;-0.58;100.00
36964;BME280;22878;48.616;35.326;2023-02-17T16:26:44;101327.91;;;-0.52;100.00
36964;BME280;22878;48.616;35.326;2023-02-17T16:29:16;101327.79;;;-0.56;100.00
36964;BME280;22878;48.616;35.326;2023-02-17T16:35:04;101332.52;;;-0.60;100.00
36964;BME280;22878;48.616;35.326;2023-02-17T16:37:29;101329.69;;;-0.62;100.00
36964;BME280;22878;48.616;35.326;2023-02-17T16:39:55;101328.64;;;-0.72;100.00
36964;BME280;22878;48.616;35.326;2023-02-17T16:42:20;101328.42;;;-0.70;100.00
36964;BME280;22878;48.616;35.326;2023-02-17T16:44:46;101328.87;;;-0.67;100.00
36964;BME280;22878;48.616;35.326;2023-02-17T16:47:20;101332.57;;;-0.64;100.00
36964;BME280;22878;48.616;35.326;2023-02-17T16:49:47;101336.70;;;-0.61;100.00
36964;BME280;22878;48.616;35.326;2023-02-17T16:52:25;101342.09;;;-0.67;100.00
36964;BME280;22878;48.616;35.326;2023-02-17T16:54:51;101341.47;;;-0.68;100.00
36964;BME280;22878;48.616;35.326;2023-02-17T16:57:18;101341.34;;;-0.66;100.00
36964;BME280;22878;48.616;35.326;2023-02-17T16:59:45;101342.51;;;-0.71;100.00
36964;BME280;22878;48.616;35.326;2023-02-17T17:04:08;101343.98;;;-0.66;100.00
36964;BME280;22878;48.616;35.326;2023-02-17T17:06:35;101344.19;;;-0.70;100.00
36964;BME280;22878;48.616;35.326;2023-02-17T17:09:03;101342.30;;;-0.71;100.00
36964;BME280;22878;48.616;35.326;2023-02-17T17:15:20;101337.80;;;-0.70;100.00
36964;BME280;22878;48.616;35.326;2023-02-17T17:20:17;101340.36;;;-0.79;100.00
36964;BME280;22878;48.616;35.326;2023-02-17T17:22:44;101340.62;;;-0.79;100.00
36964;BME280;22878;48.616;35.326;2023-02-17T17:25:12;101342.30;;;-0.79;100.00
36964;BME280;22878;48.616;35.326;2023-02-17T17:27:38;101341.08;;;-0.79;100.00
36964;BME280;22878;48.616;35.326;2023-02-17T17:30:05;101339.96;;;-0.80;100.00
36964;BME280;22878;48.616;35.326;2023-02-17T17:32:31;101339.77;;;-0.78;100.00
36964;BME280;22878;48.616;35.326;2023-02-17T17:34:57;101339.36;;;-0.76;100.00
36964;BME280;22878;48.616;35.326;2023-02-17T17:37:23;101343.20;;;-0.72;100.00
36964;BME280;22878;48.616;35.326;2023-02-17T17:39:48;101346.17;;;-0.72;100.00
36964;BME280;22878;48.616;35.326;2023-02-17T17:42:14;101343.85;;;-0.72;100.00
36964;BME280;22878;48.616;35.326;2023-02-17T17:44:41;101343.23;;;-0.73;100.00
36964;BME280;22878;48.616;35.326;2023-02-17T17:47:14;101340.71;;;-0.74;100.00
36964;BME280;22878;48.616;35.326;2023-02-17T17:49:41;101340.91;;;-0.72;100.00
36964;BME280;22878;48.616;35.326;2023-02-17T17:52:07;101343.65;;;-0.72;100.00
36964;BME280;22878;48.616;35.326;2023-02-17T17:54:32;101346.08;;;-0.73;100.00
36964;BME280;22878;48.616;35.326;2023-02-17T17:56:58;101346.35;;;-0.74;100.00
36964;BME280;22878;48.616;35.326;2023-02-17T17:59:24;101346.43;;;-0.75;100.00
36964;BME280;22878;48.616;35.326;2023-02-17T18:01:49;101350.16;;;-0.73;100.00
36964;BME280;22878;48.616;35.326;2023-02-17T18:04:15;101349.62;;;-0.73;100.00
36964;BME280;22878;48.616;35.326;2023-02-17T18:06:46;101352.05;;;-0.73;100.00
36964;BME280;22878;48.616;35.326;2023-02-17T18:09:16;101353.61;;;-0.69;100.00
36964;BME280;22878;48.616;35.326;2023-02-17T18:11:43;101356.13;;;-0.68;100.00
36964;BME280;22878;48.616;35.326;2023-02-17T18:14:10;101356.46;;;-0.69;100.00
36964;BME280;22878;48.616;35.326;2023-02-17T18:16:37;101355.77;;;-0.71;100.00
36964;BME280;22878;48.616;35.326;2023-02-17T18:19:05;101354.71;;;-0.73;100.00
36964;BME280;22878;48.616;35.326;2023-02-17T18:21:32;101355.93;;;-0.74;100.00
36964;BME280;22878;48.616;35.326;2023-02-17T18:23:58;101358.46;;;-0.75;100.00
36964;BME280;22878;48.616;35.326;2023-02-17T18:26:24;101360.65;;;-0.74;100.00
36964;BME280;22878;48.616;35.326;2023-02-17T18:28:49;101367.58;;;-0.74;100.00
36964;BME280;22878;48.616;35.326;2023-02-17T18:31:16;101363.96;;;-0.80;100.00
36964;BME280;22878;48.616;35.326;2023-02-17T18:33:42;101362.65;;;-0.79;100.00
36964;BME280;22878;48.616;35.326;2023-02-17T18:36:09;101364.33;;;-0.77;100.00
36964;BME280;22878;48.616;35.326;2023-02-17T18:38:35;101359.80;;;-0.81;100.00
36964;BME280;22878;48.616;35.326;2023-02-17T18:41:01;101358.38;;;-0.82;100.00
36964;BME280;22878;48.616;35.326;2023-02-17T18:43:27;101356.95;;;-0.80;100.00
36964;BME280;22878;48.616;35.326;2023-02-17T18:45:53;101356.16;;;-0.83;100.00
36964;BME280;22878;48.616;35.326;2023-02-17T18:48:19;101352.66;;;-0.85;100.00
36964;BME280;22878;48.616;35.326;2023-02-17T18:50:44;101349.48;;;-0.86;100.00
36964;BME280;22878;48.616;35.326;2023-02-17T18:53:10;101342.84;;;-0.92;100.00
36964;BME280;22878;48.616;35.326;2023-02-17T18:55:37;101340.02;;;-0.92;100.00
36964;BME280;22878;48.616;35.326;2023-02-17T18:58:02;101344.63;;;-0.89;100.00
36964;BME280;22878;48.616;35.326;2023-02-17T19:00:28;101344.85;;;-0.91;100.00
36964;BME280;22878;48.616;35.326;2023-02-17T19:02:54;101344.62;;;-0.92;100.00
36964;BME280;22878;48.616;35.326;2023-02-17T19:05:19;101346.88;;;-0.92;100.00
36964;BME280;22878;48.616;35.326;2023-02-17T19:08:05;101351.61;;;-0.93;100.00
36964;BME280;22878;48.616;35.326;2023-02-17T19:10:32;101355.40;;;-0.99;100.00
36964;BME280;22878;48.616;35.326;2023-02-17T19:12:58;101350.58;;;-1.00;100.00
36964;BME280;22878;48.616;35.326;2023-02-17T19:15:24;101354.02;;;-0.99;100.00
36964;BME280;22878;48.616;35.326;2023-02-17T19:17:54;101350.17;;;-1.00;100.00
36964;BME280;22878;48.616;35.326;2023-02-17T19:20:21;101346.28;;;-0.99;100.00
36964;BME280;22878;48.616;35.326;2023-02-17T19:22:46;101348.16;;;-1.00;100.00
36964;BME280;22878;48.616;35.326;2023-02-17T19:25:12;101343.01;;;-0.98;100.00
36964;BME280;22878;48.616;35.326;2023-02-17T19:27:40;101338.75;;;-0.98;100.00
36964;BME280;22878;48.616;35.326;2023-02-17T19:30:07;101336.06;;;-0.98;100.00
36964;BME280;22878;48.616;35.326;2023-02-17T19:32:33;101336.56;;;-0.98;100.00
36964;BME280;22878;48.616;35.326;2023-02-17T19:34:59;101335.46;;;-0.99;100.00
36964;BME280;22878;48.616;35.326;2023-02-17T19:37:25;101337.02;;;-1.00;100.00
36964;BME280;22878;48.616;35.326;2023-02-17T19:39:50;101332.42;;;-0.98;100.00
36964;BME280;22878;48.616;35.326;2023-02-17T19:42:16;101333.48;;;-0.98;100.00
36964;BME280;22878;48.616;35.326;2023-02-17T19:44:41;101331.60;;;-0.97;100.00
36964;BME280;22878;48.616;35.326;2023-02-17T19:47:07;101330.27;;;-0.95;100.00
36964;BME280;22878;48.616;35.326;2023-02-17T19:49:32;101330.15;;;-0.94;100.00
36964;BME280;22878;48.616;35.326;2023-02-17T19:51:58;101331.27;;;-0.94;100.00
36964;BME280;22878;48.616;35.326;2023-02-17T19:54:24;101330.11;;;-0.93;100.00
36964;BME280;22878;48.616;35.326;2023-02-17T19:56:49;101334.27;;;-0.94;100.00
36964;BME280;22878;48.616;35.326;2023-02-17T19:59:15;101338.29;;;-0.95;100.00
36964;BME280;22878;48.616;35.326;2023-02-17T20:01:41;101340.66;;;-0.95;100.00
36964;BME280;22878;48.616;35.326;2023-02-17T20:04:06;101343.48;;;-0.95;100.00
36964;BME280;22878;48.616;35.326;2023-02-17T20:06:43;101345.33;;;-0.94;100.00
36964;BME280;22878;48.616;35.326;2023-02-17T20:09:14;101342.94;;;-0.93;100.00
36964;BME280;22878;48.616;35.326;2023-02-17T20:11:42;101342.38;;;-0.93;100.00
36964;BME280;22878;48.616;35.326;2023-02-17T20:14:08;101333.65;;;-0.95;100.00
36964;BME280;22878;48.616;35.326;2023-02-17T20:16:36;101339.04;;;-0.96;100.00
36964;BME280;22878;48.616;35.326;2023-02-17T20:19:02;101338.77;;;-0.92;100.00
36964;BME280;22878;48.616;35.326;2023-02-17T20:21:30;101334.56;;;-0.90;100.00
36964;BME280;22878;48.616;35.326;2023-02-17T20:23:56;101331.56;;;-0.92;100.00
36964;BME280;22878;48.616;35.326;2023-02-17T20:26:32;101335.71;;;-0.91;100.00
36964;BME280;22878;48.616;35.326;2023-02-17T20:28:59;101341.66;;;-0.92;100.00
36964;BME280;22878;48.616;35.326;2023-02-17T20:31:26;101342.78;;;-0.93;100.00
36964;BME280;22878;48.616;35.326;2023-02-17T20:34:26;101342.64;;;-0.92;100.00
36964;BME280;22878;48.616;35.326;2023-02-17T20:36:52;101344.76;;;-0.92;100.00
36964;BME280;22878;48.616;35.326;2023-02-17T20:39:18;101345.39;;;-0.89;100.00
36964;BME280;22878;48.616;35.326;2023-02-17T20:41:44;101347.52;;;-0.87;100.00
36964;BME280;22878;48.616;35.326;2023-02-17T20:44:10;101347.50;;;-0.89;100.00
36964;BME280;22878;48.616;35.326;2023-02-17T20:46:38;101342.14;;;-0.88;100.00
36964;BME280;22878;48.616;35.326;2023-02-17T20:49:05;101337.28;;;-0.88;100.00
36964;BME280;22878;48.616;35.326;2023-02-17T20:51:31;101336.86;;;-0.88;100.00